createdAt,value
2023-02-17T00:01:15.177Z,101049.47
2023-02-17T00:04:04.592Z,101038.44
2023-02-17T00:06:54.364Z,101044.63
2023-02-17T00:09:46.905Z,101050.44
2023-02-17T00:12:38.242Z,101033.41
2023-02-17T00:15:27.493Z,101047.00
2023-02-17T00:18:16.723Z,101021.13
2023-02-17T00:21:18.627Z,101020.69
2023-02-17T00:24:08.265Z,101017.13
2023-02-17T00:26:57.589Z,101004.97
2023-02-17T00:29:48.216Z,100999.59
2023-02-17T00:32:38.677Z,101003.97
2023-02-17T00:35:28.114Z,100985.72
2023-02-17T00:38:17.871Z,100974.25
2023-02-17T00:41:07.479Z,100978.63
2023-02-17T00:43:57.131Z,101006.59
2023-02-17T00:46:49.115Z,100997.06
2023-02-17T00:49:38.889Z,101022.75
2023-02-17T00:52:28.400Z,100994.06
2023-02-17T00:55:17.946Z,101002.03
2023-02-17T00:58:07.161Z,101015.97
2023-02-17T01:00:58.084Z,100990.53
2023-02-17T01:03:49.291Z,101032.44
2023-02-17T01:06:41.032Z,101001.91
2023-02-17T01:09:30.238Z,100996.25
2023-02-17T01:12:19.510Z,101004.31
2023-02-17T01:15:09.824Z,100979.22
2023-02-17T01:17:59.078Z,100983.41
2023-02-17T01:20:49.805Z,100986.84
2023-02-17T01:23:39.101Z,100980.50
2023-02-17T01:26:33.007Z,100964.50
2023-02-17T01:29:23.734Z,100984.53
2023-02-17T01:32:13.314Z,100952.84
2023-02-17T01:35:02.636Z,100955.13
2023-02-17T01:37:53.368Z,100946.22
2023-02-17T01:40:48.510Z,100928.94
2023-02-17T01:43:38.136Z,100941.53
2023-02-17T01:46:27.354Z,100931.72
2023-02-17T01:49:27.975Z,100921.09
2023-02-17T01:52:25.802Z,100936.25
2023-02-17T01:55:20.850Z,100940.13
2023-02-17T01:58:13.019Z,100947.03
2023-02-17T02:01:06.409Z,100932.97
2023-02-17T02:03:56.170Z,100931.63
2023-02-17T02:06:46.638Z,100928.59
2023-02-17T02:09:41.490Z,100915.19
2023-02-17T02:12:34.625Z,100912.25
2023-02-17T02:15:29.150Z,100905.63
2023-02-17T02:18:43.904Z,100904.13
2023-02-17T02:22:00.679Z,100904.00
2023-02-17T02:25:04.788Z,100898.94
2023-02-17T02:28:12.177Z,100910.59
2023-02-17T02:31:26.223Z,100893.75
2023-02-17T02:34:22.180Z,100893.59
2023-02-17T02:37:18.153Z,100907.22
2023-02-17T02:40:12.601Z,100844.47
2023-02-17T02:43:04.592Z,100853.06
2023-02-17T02:45:54.063Z,100882.00
2023-02-17T02:48:43.721Z,100882.72
2023-02-17T02:51:50.082Z,100876.13
2023-02-17T02:54:52.140Z,100859.81
2023-02-17T02:57:51.282Z,100875.06
2023-02-17T03:00:54.440Z,100853.66
2023-02-17T03:03:52.100Z,100827.69
2023-02-17T03:06:50.318Z,100837.88
2023-02-17T03:09:40.549Z,100838.50
2023-02-17T03:12:30.531Z,100845.44
2023-02-17T03:15:26.775Z,100847.84
2023-02-17T03:18:16.503Z,100840.34
2023-02-17T03:21:13.657Z,100836.97
2023-02-17T03:24:06.768Z,100821.31
2023-02-17T03:26:55.969Z,100801.16
2023-02-17T03:29:45.327Z,100812.91
2023-02-17T03:32:34.631Z,100813.66
2023-02-17T03:35:23.911Z,100823.38
2023-02-17T03:38:13.220Z,100823.22
2023-02-17T03:41:03.894Z,100839.22
2023-02-17T03:43:53.189Z,100849.63
2023-02-17T03:46:42.423Z,100835.13
2023-02-17T03:49:32.293Z,100827.22
2023-02-17T03:52:21.500Z,100855.94
2023-02-17T03:55:10.713Z,100855.63
2023-02-17T03:58:01.619Z,100851.97
2023-02-17T04:00:51.063Z,100854.03
2023-02-17T04:03:41.334Z,100880.44
2023-02-17T04:06:30.715Z,100877.81
2023-02-17T04:09:19.945Z,100880.28
2023-02-17T04:12:09.287Z,100868.34
2023-02-17T04:14:59.948Z,100907.66
2023-02-17T04:17:49.234Z,100886.16
2023-02-17T04:20:38.591Z,100902.19
2023-02-17T04:23:28.339Z,100926.38
2023-02-17T04:26:17.729Z,100925.13
2023-02-17T04:29:07.463Z,100924.66
2023-02-17T04:31:58.224Z,100914.94
2023-02-17T04:34:47.448Z,100939.03
2023-02-17T04:37:36.896Z,100909.94
2023-02-17T04:40:26.159Z,100933.03
2023-02-17T04:43:15.318Z,100931.78
2023-02-17T04:46:05.718Z,100946.47
2023-02-17T04:48:56.635Z,100939.38
2023-02-17T04:51:45.983Z,100939.38
2023-02-17T04:54:35.388Z,100943.59
2023-02-17T04:57:24.675Z,100956.84
2023-02-17T05:00:15.325Z,100969.81
2023-02-17T05:03:04.814Z,100948.66
2023-02-17T05:05:55.526Z,100934.06
2023-02-17T05:08:44.713Z,100961.25
2023-02-17T05:11:33.877Z,100959.91
2023-02-17T05:14:23.148Z,100969.28
2023-02-17T05:17:12.484Z,100962.19
2023-02-17T05:20:02.439Z,100960.91
2023-02-17T05:22:53.413Z,100956.66
2023-02-17T05:25:42.725Z,100957.00
2023-02-17T05:28:31.942Z,100974.47
2023-02-17T05:31:21.150Z,100975.75
2023-02-17T05:34:10.505Z,100995.47
2023-02-17T05:36:59.726Z,101004.50
2023-02-17T05:39:50.371Z,100999.50
2023-02-17T05:42:39.526Z,100987.56
2023-02-17T05:45:28.763Z,100989.84
2023-02-17T05:48:18.355Z,100991.13
2023-02-17T05:51:08.050Z,100980.13
2023-02-17T05:53:57.478Z,100991.13
2023-02-17T05:56:48.264Z,100989.50
2023-02-17T05:59:37.562Z,101006.47
2023-02-17T06:02:26.924Z,100990.66
2023-02-17T06:05:16.559Z,101014.06
2023-02-17T06:08:06.120Z,101006.81
2023-02-17T06:10:55.648Z,101006.97
2023-02-17T06:13:46.310Z,100997.44
2023-02-17T06:16:35.575Z,101005.81
2023-02-17T06:19:25.191Z,101007.75
2023-02-17T06:22:14.362Z,101025.06
2023-02-17T06:25:03.778Z,101027.31
2023-02-17T06:27:53.183Z,100946.38
2023-02-17T06:30:43.849Z,101032.66
2023-02-17T06:33:33.134Z,101051.25
2023-02-17T06:36:22.322Z,101038.31
2023-02-17T06:39:11.538Z,101059.97
2023-02-17T06:42:00.815Z,101070.34
2023-02-17T06:44:50.086Z,101076.94
2023-02-17T06:47:40.708Z,101081.16
2023-02-17T06:50:29.936Z,101079.88
2023-02-17T06:53:19.172Z,101094.06
2023-02-17T06:56:08.839Z,101097.78
2023-02-17T06:58:58.112Z,101098.91
2023-02-17T07:01:49.491Z,101095.50
2023-02-17T07:04:40.281Z,101120.25
2023-02-17T07:07:29.814Z,101126.69
2023-02-17T07:10:19.496Z,101115.50
2023-02-17T07:13:08.908Z,101122.47
2023-02-17T07:15:58.093Z,101150.13
2023-02-17T07:18:47.279Z,101154.47
2023-02-17T07:21:37.866Z,101154.78
2023-02-17T07:24:27.679Z,101189.50
2023-02-17T07:27:17.305Z,101187.44
2023-02-17T07:30:08.349Z,101197.72
2023-02-17T07:32:57.662Z,101200.69
2023-02-17T07:35:46.873Z,101206.00
2023-02-17T07:38:38.631Z,101212.28
2023-02-17T07:41:28.782Z,101202.97
2023-02-17T07:44:18.207Z,101233.41
2023-02-17T07:47:07.521Z,101214.69
2023-02-17T07:49:56.771Z,101234.47
2023-02-17T07:52:46.159Z,101233.09
2023-02-17T07:55:37.705Z,101233.38
2023-02-17T07:58:27.053Z,101232.88
2023-02-17T08:01:19.527Z,101244.59
2023-02-17T08:04:08.744Z,101264.94
2023-02-17T08:06:58.020Z,101263.94
2023-02-17T08:10:04.743Z,101274.78
2023-02-17T08:13:12.481Z,101277.19
2023-02-17T08:16:01.663Z,101271.44
2023-02-17T08:18:50.997Z,101304.34
2023-02-17T08:21:40.735Z,101292.47
2023-02-17T08:24:29.981Z,101298.47
2023-02-17T08:27:21.642Z,101289.53
2023-02-17T08:30:13.551Z,101297.03
2023-02-17T08:33:02.975Z,101306.72
2023-02-17T08:35:52.111Z,101334.25
2023-02-17T08:38:42.272Z,101336.59
2023-02-17T08:41:35.491Z,101340.63
2023-02-17T08:44:24.668Z,101338.50
2023-02-17T08:47:15.373Z,101358.59
2023-02-17T08:50:06.175Z,101380.13
2023-02-17T08:52:55.469Z,101377.38
2023-02-17T08:55:49.610Z,101386.03
2023-02-17T08:58:39.976Z,101384.41
2023-02-17T09:01:29.252Z,101406.38
2023-02-17T09:04:20.321Z,101403.31
2023-02-17T09:07:12.673Z,101421.56
2023-02-17T09:10:02.615Z,101423.91
2023-02-17T09:12:52.123Z,101434.47
2023-02-17T09:15:41.494Z,101442.28
2023-02-17T09:18:30.951Z,101455.28
2023-02-17T09:21:22.227Z,101463.50
2023-02-17T09:24:11.517Z,101467.84
2023-02-17T09:27:01.184Z,101478.63
2023-02-17T09:29:50.359Z,101475.28
2023-02-17T09:32:42.225Z,101477.81
2023-02-17T09:35:31.762Z,101497.25
2023-02-17T09:38:23.500Z,101491.50
2023-02-17T09:41:20.546Z,101486.25
2023-02-17T09:44:22.085Z,101495.50
2023-02-17T09:47:16.395Z,101510.44
2023-02-17T09:50:10.401Z,101495.69
2023-02-17T09:53:07.110Z,101524.69
2023-02-17T09:56:03.037Z,101523.88
2023-02-17T09:58:57.116Z,101540.09
2023-02-17T10:01:47.571Z,101539.69
2023-02-17T10:04:42.707Z,101535.56
2023-02-17T10:07:41.079Z,101548.41
2023-02-17T10:10:38.281Z,101576.03
2023-02-17T10:13:35.451Z,101577.09
2023-02-17T10:16:37.865Z,101571.38
2023-02-17T10:19:31.612Z,101586.03
2023-02-17T10:22:23.888Z,101592.31
2023-02-17T10:25:18.869Z,101609.81
2023-02-17T10:28:15.675Z,101595.94
2023-02-17T10:31:12.792Z,101596.13
2023-02-17T10:34:05.557Z,101608.41
2023-02-17T10:37:01.388Z,101603.59
2023-02-17T10:39:52.675Z,101608.47
2023-02-17T10:42:42.056Z,101624.84
2023-02-17T10:45:36.975Z,101625.59
2023-02-17T10:48:35.791Z,101629.28
2023-02-17T10:51:29.455Z,101628.19
2023-02-17T10:54:33.147Z,101622.00
2023-02-17T10:57:27.005Z,101634.63
2023-02-17T11:00:20.372Z,101625.75
2023-02-17T11:03:21.746Z,101625.28
2023-02-17T11:06:22.308Z,101632.81
2023-02-17T11:09:23.409Z,101643.44
2023-02-17T11:12:16.149Z,101627.50
2023-02-17T11:15:15.873Z,101636.91
2023-02-17T11:18:19.633Z,101643.00
2023-02-17T11:21:12.536Z,101656.09
2023-02-17T11:24:06.562Z,101660.09
2023-02-17T11:27:02.263Z,101674.53
2023-02-17T11:29:51.627Z,101669.53
2023-02-17T11:32:40.894Z,101674.56
2023-02-17T11:35:50.357Z,101687.38
2023-02-17T11:38:46.538Z,101679.59
2023-02-17T11:41:42.250Z,101672.78
2023-02-17T11:44:31.466Z,101662.22
2023-02-17T11:47:34.833Z,101688.69
2023-02-17T11:50:41.351Z,101678.63
2023-02-17T11:53:48.041Z,101687.75
2023-02-17T11:56:40.650Z,101674.75
2023-02-17T11:59:49.785Z,101678.19
2023-02-17T12:03:05.962Z,101685.38
2023-02-17T12:06:08.884Z,101684.25
2023-02-17T12:09:13.011Z,101679.44
2023-02-17T12:12:15.797Z,101656.78
2023-02-17T12:15:26.127Z,101686.03
2023-02-17T12:18:34.778Z,101678.84
2023-02-17T12:21:49.473Z,101672.56
2023-02-17T12:25:25.843Z,101676.72
2023-02-17T12:28:42.339Z,101684.34
2023-02-17T12:31:57.844Z,101676.03
2023-02-17T12:34:56.025Z,101684.63
2023-02-17T12:37:54.861Z,101678.47
2023-02-17T12:40:51.878Z,101670.50
2023-02-17T12:43:49.109Z,101679.31
2023-02-17T12:46:43.861Z,101668.72
2023-02-17T12:49:41.878Z,101664.59
2023-02-17T12:52:37.902Z,101671.41
2023-02-17T12:55:36.460Z,101675.84
2023-02-17T12:58:28.954Z,101653.09
2023-02-17T13:01:21.865Z,101672.78
2023-02-17T13:04:20.229Z,101664.84
2023-02-17T13:07:38.652Z,101656.38
2023-02-17T13:10:36.403Z,101648.22
2023-02-17T13:13:30.399Z,101652.63
2023-02-17T13:16:19.779Z,101652.94
2023-02-17T13:19:10.121Z,101652.75
2023-02-17T13:22:03.415Z,101663.34
2023-02-17T13:24:55.814Z,101658.97
2023-02-17T13:27:45.047Z,101644.38
2023-02-17T13:30:41.529Z,101650.72
2023-02-17T13:33:32.913Z,101655.38
2023-02-17T13:36:37.201Z,101653.41
2023-02-17T13:39:39.336Z,101643.28
2023-02-17T13:42:40.814Z,101643.47
2023-02-17T13:45:34.632Z,101642.16
2023-02-17T13:48:29.081Z,101639.25
2023-02-17T13:51:29.080Z,101635.31
2023-02-17T13:54:23.376Z,101634.34
2023-02-17T13:57:28.013Z,101637.25
2023-02-17T14:00:25.303Z,101637.75
2023-02-17T14:03:22.665Z,101644.38
2023-02-17T14:06:22.678Z,101611.28
2023-02-17T14:09:24.732Z,101608.59
2023-02-17T14:12:24.935Z,101604.25
2023-02-17T14:15:18.733Z,101631.97
2023-02-17T14:18:15.737Z,101621.16
2023-02-17T14:21:11.702Z,101612.41
2023-02-17T14:24:01.464Z,101603.50
2023-02-17T14:26:53.585Z,101605.75
2023-02-17T14:29:47.005Z,101609.31
2023-02-17T14:32:38.958Z,101614.84
2023-02-17T14:35:29.073Z,101611.47
2023-02-17T14:38:24.362Z,101596.19
2023-02-17T14:41:13.656Z,101589.53
2023-02-17T14:44:03.273Z,101608.69
2023-02-17T14:46:53.926Z,101602.53
2023-02-17T14:49:43.090Z,101597.34
2023-02-17T14:52:32.355Z,101587.13
2023-02-17T14:55:34.238Z,101588.91
2023-02-17T14:58:25.621Z,101587.94
2023-02-17T15:01:17.894Z,101600.59
2023-02-17T15:04:08.624Z,101591.63
2023-02-17T15:06:57.993Z,101596.53
2023-02-17T15:09:49.632Z,101569.94
2023-02-17T15:12:38.980Z,101591.63
2023-02-17T15:15:28.299Z,101598.16
2023-02-17T15:18:20.303Z,101575.09
2023-02-17T15:21:26.393Z,101584.50
2023-02-17T15:24:21.096Z,101576.88
2023-02-17T15:27:17.467Z,101564.22
2023-02-17T15:30:11.157Z,101574.47
2023-02-17T15:33:00.627Z,101567.63
2023-02-17T15:35:53.781Z,101559.38
2023-02-17T15:38:44.704Z,101551.75
2023-02-17T15:41:34.103Z,101550.13
2023-02-17T15:44:27.322Z,101546.41
2023-02-17T15:47:20.672Z,101542.69
2023-02-17T15:50:20.451Z,101526.28
2023-02-17T15:53:10.108Z,101479.94
2023-02-17T15:56:01.777Z,101535.19
2023-02-17T15:58:52.073Z,101527.75
2023-02-17T16:01:42.033Z,101526.94
2023-02-17T16:04:31.664Z,101535.53
2023-02-17T16:07:20.880Z,101529.22
2023-02-17T16:10:14.908Z,101522.25
2023-02-17T16:13:05.867Z,101522.88
2023-02-17T16:15:58.904Z,101523.38
2023-02-17T16:18:48.320Z,101509.09
2023-02-17T16:21:37.742Z,101527.59
2023-02-17T16:24:26.989Z,101502.66
2023-02-17T16:27:18.019Z,101514.28
2023-02-17T16:30:21.053Z,101508.50
2023-02-17T16:33:12.083Z,101508.47
2023-02-17T16:36:01.329Z,101514.16
2023-02-17T16:38:51.806Z,101507.97
2023-02-17T16:41:41.421Z,101507.97
2023-02-17T16:44:30.724Z,101513.63
2023-02-17T16:47:24.004Z,101512.63
2023-02-17T16:50:23.428Z,101504.69
2023-02-17T16:53:14.412Z,101509.69
2023-02-17T16:56:15.793Z,101483.44
2023-02-17T16:59:05.887Z,101491.06
2023-02-17T17:01:55.517Z,101501.59
2023-02-17T17:04:46.243Z,101494.81
2023-02-17T17:07:35.636Z,101498.50
2023-02-17T17:10:28.315Z,101489.09
2023-02-17T17:13:17.599Z,101489.59
2023-02-17T17:16:14.913Z,101498.50
2023-02-17T17:19:05.156Z,101482.47
2023-02-17T17:21:55.820Z,101496.91
2023-02-17T17:24:45.142Z,101485.41
2023-02-17T17:27:34.339Z,101487.50
2023-02-17T17:30:28.667Z,101494.47
2023-02-17T17:33:18.308Z,101493.81
2023-02-17T17:36:20.780Z,101498.66
2023-02-17T17:39:21.379Z,101484.88
2023-02-17T17:42:11.810Z,101480.72
2023-02-17T17:45:00.984Z,101479.25
2023-02-17T17:47:50.192Z,101483.78
2023-02-17T17:50:39.826Z,101478.75
2023-02-17T17:53:29.586Z,101474.38
2023-02-17T17:56:23.685Z,101474.06
2023-02-17T17:59:14.698Z,101468.56
2023-02-17T18:02:03.952Z,101480.56
2023-02-17T18:04:53.315Z,101471.19
2023-02-17T18:07:44.163Z,101479.94
2023-02-17T18:10:33.783Z,101478.44
2023-02-17T18:13:25.190Z,101470.84
2023-02-17T18:16:14.900Z,101476.00
2023-02-17T18:19:08.257Z,101469.22
2023-02-17T18:21:57.724Z,101462.38
2023-02-17T18:24:47.514Z,101459.31
2023-02-17T18:27:42.711Z,101464.50
2023-02-17T18:30:33.818Z,101457.34
2023-02-17T18:33:23.325Z,101449.28
2023-02-17T18:36:15.109Z,101445.72
2023-02-17T18:39:05.134Z,101438.25
2023-02-17T18:41:54.652Z,101433.88
2023-02-17T18:44:43.830Z,101441.16
2023-02-17T18:47:34.811Z,101449.72
2023-02-17T18:50:24.158Z,101438.84
2023-02-17T18:53:13.395Z,101438.88
2023-02-17T18:56:02.846Z,101444.22
2023-02-17T18:58:55.262Z,101426.88
2023-02-17T19:01:45.198Z,101423.59
2023-02-17T19:04:35.947Z,101441.56
2023-02-17T19:07:25.421Z,101434.00
2023-02-17T19:10:15.346Z,101417.25
2023-02-17T19:13:04.564Z,101419.50
2023-02-17T19:15:53.766Z,101419.97
2023-02-17T19:18:44.085Z,101406.84
2023-02-17T19:21:36.347Z,101415.59
2023-02-17T19:24:26.139Z,101418.50
2023-02-17T19:27:15.382Z,101420.75
2023-02-17T19:30:05.084Z,101426.25
2023-02-17T19:32:54.341Z,101414.75
2023-02-17T19:35:45.518Z,101406.50
2023-02-17T19:38:36.265Z,101410.19
2023-02-17T19:41:25.632Z,101401.94
2023-02-17T19:44:15.408Z,101401.63
2023-02-17T19:47:04.668Z,101403.56
2023-02-17T19:49:53.875Z,101395.84
2023-02-17T19:52:43.106Z,101393.47
2023-02-17T19:55:33.884Z,101407.00
2023-02-17T19:58:23.144Z,101400.38
2023-02-17T20:01:18.937Z,101398.16
2023-02-17T20:04:09.067Z,101403.78
2023-02-17T20:06:58.686Z,101396.66
2023-02-17T20:09:47.902Z,101391.09
2023-02-17T20:12:38.679Z,101408.38
2023-02-17T20:15:28.145Z,101408.56
2023-02-17T20:18:17.446Z,101398.69
2023-02-17T20:21:08.919Z,101407.09
2023-02-17T20:23:59.394Z,101411.28
2023-02-17T20:26:51.003Z,101405.13
2023-02-17T20:29:41.768Z,101406.50
2023-02-17T20:32:31.077Z,101397.44
2023-02-17T20:35:20.517Z,101398.03
2023-02-17T20:38:10.244Z,101406.94
2023-02-17T20:41:01.497Z,101409.47
2023-02-17T20:43:51.806Z,101397.28
2023-02-17T20:46:43.876Z,101389.59
2023-02-17T20:49:33.184Z,101419.31
2023-02-17T20:52:22.430Z,101411.75
2023-02-17T20:55:12.406Z,101415.19
2023-02-17T20:58:01.930Z,101404.78
2023-02-17T21:00:51.289Z,101415.31
2023-02-17T21:03:42.032Z,101418.16
2023-02-17T21:06:35.292Z,101410.72
2023-02-17T21:09:24.775Z,101415.41
2023-02-17T21:12:14.017Z,101415.41
2023-02-17T21:15:03.250Z,101414.34
2023-02-17T21:17:52.799Z,101410.16
2023-02-17T21:20:43.518Z,101399.56
2023-02-17T21:23:32.842Z,101400.16
2023-02-17T21:26:22.261Z,101399.34
2023-02-17T21:29:11.747Z,101402.41
2023-02-17T21:32:01.152Z,101380.09
2023-02-17T21:34:50.491Z,101381.41
2023-02-17T21:37:41.360Z,101377.38
2023-02-17T21:40:30.774Z,101389.28
2023-02-17T21:43:38.805Z,101381.88
2023-02-17T21:46:30.335Z,101382.88
2023-02-17T21:49:19.709Z,101380.78
2023-02-17T21:52:09.241Z,101384.34
2023-02-17T21:55:01.140Z,101369.16
2023-02-17T21:57:51.068Z,101360.53
2023-02-17T22:00:40.323Z,101378.47
2023-02-17T22:03:29.785Z,101367.09
2023-02-17T22:06:21.623Z,101361.88
2023-02-17T22:09:14.712Z,101357.59
2023-02-17T22:12:05.467Z,101363.91
2023-02-17T22:14:54.610Z,101369.25
2023-02-17T22:17:44.323Z,101359.03
2023-02-17T22:20:33.525Z,101380.16
2023-02-17T22:23:22.763Z,101362.06
2023-02-17T22:26:14.549Z,101360.91
2023-02-17T22:29:06.307Z,101325.31
2023-02-17T22:31:56.251Z,101323.50
2023-02-17T22:34:45.584Z,101321.03
2023-02-17T22:37:34.858Z,101336.72
2023-02-17T22:40:24.205Z,101303.34
2023-02-17T22:43:13.526Z,101325.13
2023-02-17T22:46:04.720Z,101313.31
2023-02-17T22:48:55.884Z,101296.44
2023-02-17T22:51:45.283Z,101301.16
2023-02-17T22:54:34.730Z,101298.25
2023-02-17T22:57:24.016Z,101309.13
2023-02-17T23:00:14.821Z,101293.09
2023-02-17T23:03:05.563Z,101280.34
2023-02-17T23:05:59.871Z,101290.69
2023-02-17T23:08:50.188Z,101268.53
2023-02-17T23:11:51.503Z,101275.94
2023-02-17T23:14:41.990Z,101265.16
2023-02-17T23:17:52.023Z,101261.41
2023-02-17T23:20:45.601Z,101251.41
2023-02-17T23:23:34.813Z,101264.16
2023-02-17T23:26:23.973Z,101265.00
2023-02-17T23:29:13.331Z,101256.41
2023-02-17T23:32:03.225Z,101261.41
2023-02-17T23:34:52.487Z,101275.59
2023-02-17T23:37:43.723Z,101244.50
2023-02-17T23:40:32.945Z,101235.81
2023-02-17T23:43:22.616Z,101221.84
2023-02-17T23:46:12.055Z,101230.38
2023-02-17T23:49:01.506Z,101227.63
2023-02-17T23:51:50.665Z,101233.00
2023-02-17T23:54:41.309Z,101251.44
2023-02-17T23:57:30.581Z,101248.53
